EGXC METAR and TAF | Updated Today

EGXC METAR

RAF Coningsby

Observation time: 65 min. ago

EGXC 291050Z 36011KT 9999 SCT030 BKN050 12/05 Q1020 RMK BLU

Need help? Read our tutorial on how to read METARs or read the parsed version below.

RAF Coningsby (EGXC) METAR

  • Weather conditions on Sun, 29 May 2022 10:50:00 +0000 (65 min. ago):
  • Present conditions: Dry
  • Clouds: Scattered at 914 meters; broken sky at 1524 meters
  • Visibility: Greater than 10 km
  • Wind: 360 degrees at 11 knots
  • Temperature: 12 celsius
  • Dew point: 5 celsius
  • Pressure: 1020 millibars
  • Remarks: BLU


Useful to know...

EGXC TAF

RAF Coningsby

TAF EGXC 290721Z 2909/3003 36012KT 9999 SCT030 PROB30 TEMPO 2909/2910 SCT024 PROB30 TEMPO 2912/2918 7000 SHRA
Observation time: 4:34 hr. ago
Need help? Read our tutorial on how to read TAFs or read the parsed version below.

Parsed version of TAF for RAF Coningsby (EGXC)

  • From 29 May at 09:00 UTC, to day 30 of the month at 03:00 UTC
  • Clouds: Scattered at 914 meters
  • Visibility: Greater than 10 km
  • Wind: 360 degrees at 12
  • Expected to arise temporarily, from 29 May at 09:00 UTC, to day 29 of the month at 10:00 UTC
    Probability of 30%
  • Clouds: Scattered at 732 meters
  • Expected to arise temporarily, from 29 May at 12:00 UTC, to day 29 of the month at 18:00 UTC
    Probability of 30%
  • Visibility: 7000 meters
  • Other: Showers of rain